Time;durP1;ratioP1;P1;durP2;ratioP2;P2;SDS_P1;SDS_P2;PMS_P1;PMS_P2;Temp;Humidity;BMP_temperature;BMP_pressure;BME280_temperature;BME280_humidity;BME280_pressure;Samples;Min_cycle;Max_cycle;Signal;HPM_P1;HPM_P2
2022/11/27 00:01:46;;;;;;;15.97;11.97;;;;;;;;;;5065512;28;20202;-86
2022/11/27 00:04:15;;;;;;;20.90;13.20;;;;;;;;;;5056613;28;20261;-87
2022/11/27 00:06:43;;;;;;;17.17;10.40;;;;;;;;;;5057524;28;20201;-86
2022/11/27 00:09:13;;;;;;;20.73;13.07;;;;;;;;;;5057091;28;20202;-86
2022/11/27 00:11:41;;;;;;;14.90;11.30;;;;;;;;;;5057208;28;20201;-86
2022/11/27 00:14:12;;;;;;;16.07;9.00;;;;;;;;;;5056591;28;20210;-86
2022/11/27 00:16:41;;;;;;;17.80;10.50;;;;;;;;;;5074813;28;20264;-86
2022/11/27 00:19:10;;;;;;;14.67;12.13;;;;;;;;;;5056642;28;20198;-86
2022/11/27 00:21:39;;;;;;;24.53;13.10;;;;;;;;;;5056808;28;20189;-86
2022/11/27 00:24:08;;;;;;;16.67;11.13;;;;;;;;;;5056709;28;20200;-87
2022/11/27 00:26:37;;;;;;;17.00;11.53;;;;;;;;;;5057013;28;20347;-86
2022/11/27 00:29:06;;;;;;;15.47;9.03;;;;;;;;;;5042231;28;20229;-87
2022/11/27 00:31:37;;;;;;;16.03;9.27;;;;;;;;;;5057056;28;20264;-87
2022/11/27 00:34:06;;;;;;;14.87;9.70;;;;;;;;;;5060577;28;20221;-86
2022/11/27 00:36:35;;;;;;;14.93;9.87;;;;;;;;;;5056735;28;20219;-86
2022/11/27 00:39:04;;;;;;;17.13;11.47;;;;;;;;;;5048261;28;20202;-86
2022/11/27 00:41:32;;;;;;;15.33;9.43;;;;;;;;;;5069985;28;20198;-86
2022/11/27 00:44:01;;;;;;;15.30;10.17;;;;;;;;;;5056446;28;20198;-86
2022/11/27 00:46:30;;;;;;;14.10;8.90;;;;;;;;;;5056436;28;20205;-86
2022/11/27 00:49:01;;;;;;;14.23;10.83;;;;;;;;;;5043039;28;20280;-86
2022/11/27 00:51:30;;;;;;;14.30;9.40;;;;;;;;;;5074219;28;20206;-85
2022/11/27 00:53:58;;;;;;;12.57;9.70;;;;;;;;;;5056499;28;20218;-86
2022/11/27 00:56:28;;;;;;;13.17;7.63;;;;;;;;;;5056278;28;20193;-86
2022/11/27 00:58:57;;;;;;;14.73;8.03;;;;;;;;;;5042783;28;20230;-86
2022/11/27 01:01:26;;;;;;;15.00;7.43;;;;;;;;;;5073476;28;20216;-86
2022/11/27 01:03:55;;;;;;;13.67;9.40;;;;;;;;;;5056000;28;20322;-86
2022/11/27 01:06:25;;;;;;;21.90;10.50;;;;;;;;;;5055825;28;20197;-86
2022/11/27 01:08:54;;;;;;;15.93;8.83;;;;;;;;;;5055950;28;20220;-86
2022/11/27 01:11:24;;;;;;;21.83;11.07;;;;;;;;;;5073765;28;20266;-86
2022/11/27 01:13:53;;;;;;;12.07;8.73;;;;;;;;;;5055561;28;20217;-86
2022/11/27 01:16:22;;;;;;;18.40;10.53;;;;;;;;;;5055792;28;20241;-86
2022/11/27 01:18:51;;;;;;;15.07;9.63;;;;;;;;;;5054605;28;20262;-86
2022/11/27 01:21:20;;;;;;;12.13;7.77;;;;;;;;;;5044617;28;20205;-86
2022/11/27 01:23:50;;;;;;;12.47;10.17;;;;;;;;;;5055365;28;20197;-86
2022/11/27 01:26:19;;;;;;;14.07;9.03;;;;;;;;;;5055599;28;20201;-86
2022/11/27 01:28:48;;;;;;;11.30;7.63;;;;;;;;;;5055465;28;20201;-86
2022/11/27 01:31:18;;;;;;;16.53;10.20;;;;;;;;;;5055791;28;20202;-86
2022/11/27 01:33:46;;;;;;;14.23;8.80;;;;;;;;;;5055326;28;20209;-86
2022/11/27 01:36:16;;;;;;;14.27;8.47;;;;;;;;;;5055479;28;20212;-86
2022/11/27 01:38:44;;;;;;;12.80;7.17;;;;;;;;;;5055189;28;20202;-86
2022/11/27 01:41:16;;;;;;;19.27;9.23;;;;;;;;;;5055256;28;20197;-86
2022/11/27 01:43:48;;;;;;;14.63;9.50;;;;;;;;;;5055062;28;20205;-86
2022/11/27 01:46:29;;;;;;;17.40;9.27;;;;;;;;;;5072903;28;20194;-86
2022/11/27 01:49:00;;;;;;;12.27;7.93;;;;;;;;;;5051120;28;20204;-86
2022/11/27 01:51:29;;;;;;;17.37;8.63;;;;;;;;;;5046898;28;20205;-86
2022/11/27 01:53:58;;;;;;;11.93;7.97;;;;;;;;;;5054713;28;20232;-86
2022/11/27 01:56:28;;;;;;;13.70;7.80;;;;;;;;;;5055020;28;20201;-86
2022/11/27 01:58:58;;;;;;;16.67;9.93;;;;;;;;;;5041534;28;20201;-86
2022/11/27 02:01:27;;;;;;;12.23;6.53;;;;;;;;;;5054829;28;20212;-86
2022/11/27 02:03:58;;;;;;;11.83;9.80;;;;;;;;;;5055210;28;20259;-86
2022/11/27 02:06:26;;;;;;;16.43;8.90;;;;;;;;;;5054840;28;20217;-86
2022/11/27 02:08:55;;;;;;;13.53;8.33;;;;;;;;;;5073040;28;20201;-86
2022/11/27 02:11:29;;;;;;;15.13;8.00;;;;;;;;;;5072391;28;20205;-86
2022/11/27 02:14:03;;;;;;;14.60;9.47;;;;;;;;;;5072393;28;20217;-86
2022/11/27 02:16:34;;;;;;;13.23;8.47;;;;;;;;;;5071261;28;20298;-86
2022/11/27 02:19:07;;;;;;;10.27;7.00;;;;;;;;;;5038956;28;20209;-87
2022/11/27 02:21:39;;;;;;;14.63;7.03;;;;;;;;;;5045374;28;20247;-87
2022/11/27 02:24:25;;;;;;;15.63;6.97;;;;;;;;;;5045431;28;20205;-87
2022/11/27 02:27:06;;;;;;;8.93;6.80;;;;;;;;;;5070876;28;20212;-86
2022/11/27 02:29:36;;;;;;;15.47;8.37;;;;;;;;;;5054400;28;20205;-87
2022/11/27 02:32:09;;;;;;;14.50;7.67;;;;;;;;;;5050007;28;20210;-86
2022/11/27 02:34:44;;;;;;;13.53;7.10;;;;;;;;;;5047161;28;20217;-86
2022/11/27 02:37:13;;;;;;;6.13;3.97;;;;;;;;;;5041524;28;20284;-86
2022/11/27 02:39:45;;;;;;;11.63;6.40;;;;;;;;;;5054489;28;20288;-86
2022/11/27 02:42:17;;;;;;;13.40;8.67;;;;;;;;;;5054330;28;20194;-87
2022/11/27 02:44:48;;;;;;;7.23;4.20;;;;;;;;;;5054145;28;20266;-87
2022/11/27 02:47:17;;;;;;;11.60;6.17;;;;;;;;;;5054345;28;20209;-87
2022/11/27 02:49:46;;;;;;;9.80;7.83;;;;;;;;;;5045249;28;20190;-87
2022/11/27 02:52:16;;;;;;;10.20;7.03;;;;;;;;;;5069359;28;20261;-87
2022/11/27 02:54:45;;;;;;;6.93;5.17;;;;;;;;;;5076475;28;20201;-87
2022/11/27 02:57:14;;;;;;;9.73;7.63;;;;;;;;;;5057442;28;20198;-87
2022/11/27 02:59:43;;;;;;;9.67;6.30;;;;;;;;;;5056139;28;20202;-87
2022/11/27 03:02:15;;;;;;;9.83;7.10;;;;;;;;;;5075629;28;20197;-87
2022/11/27 03:04:45;;;;;;;10.43;6.93;;;;;;;;;;5076069;28;20228;-87
2022/11/27 03:07:15;;;;;;;14.33;7.47;;;;;;;;;;5065876;28;20209;-87
2022/11/27 03:09:45;;;;;;;7.77;4.50;;;;;;;;;;5058092;28;20211;-87
2022/11/27 03:12:14;;;;;;;11.07;7.00;;;;;;;;;;5045093;28;20198;-87
2022/11/27 03:14:43;;;;;;;13.13;7.80;;;;;;;;;;5057951;28;20216;-87
2022/11/27 03:17:20;;;;;;;16.90;7.27;;;;;;;;;;5057807;28;20231;-87
2022/11/27 03:19:50;;;;;;;14.83;7.50;;;;;;;;;;5076044;28;20212;-87
2022/11/27 03:22:18;;;;;;;12.83;6.87;;;;;;;;;;5058055;28;20201;-87
2022/11/27 03:24:48;;;;;;;9.23;6.33;;;;;;;;;;5058069;28;20335;-87
2022/11/27 03:27:19;;;;;;;11.27;7.30;;;;;;;;;;5058069;28;20208;-87
2022/11/27 03:29:50;;;;;;;11.40;6.00;;;;;;;;;;5058043;28;20237;-87
2022/11/27 03:32:20;;;;;;;9.00;5.03;;;;;;;;;;5075855;28;20196;-87
2022/11/27 03:34:49;;;;;;;11.53;6.83;;;;;;;;;;5056969;28;20217;-87
2022/11/27 03:37:17;;;;;;;12.73;6.93;;;;;;;;;;5057944;28;20221;-87
2022/11/27 03:39:46;;;;;;;14.90;7.07;;;;;;;;;;5055211;28;20197;-87
2022/11/27 03:42:19;;;;;;;14.63;7.70;;;;;;;;;;5047262;28;20212;-87
2022/11/27 03:44:51;;;;;;;12.70;6.77;;;;;;;;;;5075338;28;20216;-86
2022/11/27 03:47:26;;;;;;;11.97;8.33;;;;;;;;;;5057507;28;20197;-87
2022/11/27 03:50:01;;;;;;;10.73;5.60;;;;;;;;;;5057051;28;20211;-87
2022/11/27 03:52:34;;;;;;;12.23;6.10;;;;;;;;;;5057581;28;20205;-87
2022/11/27 03:55:08;;;;;;;13.50;8.03;;;;;;;;;;5057310;28;20217;-87
2022/11/27 03:57:41;;;;;;;9.40;6.87;;;;;;;;;;5057104;28;20209;-87
2022/11/27 04:00:11;;;;;;;10.37;6.23;;;;;;;;;;5057442;28;20208;-87
2022/11/27 04:02:42;;;;;;;11.37;7.83;;;;;;;;;;5057153;28;20251;-86
2022/11/27 04:05:13;;;;;;;8.80;5.90;;;;;;;;;;5057553;28;20222;-86
2022/11/27 04:07:41;;;;;;;10.10;6.00;;;;;;;;;;5056414;28;20243;-87
2022/11/27 04:10:10;;;;;;;12.23;7.57;;;;;;;;;;5075180;28;20205;-87
2022/11/27 04:12:39;;;;;;;12.93;7.40;;;;;;;;;;5055673;28;20209;-87
2022/11/27 04:15:08;;;;;;;11.33;6.37;;;;;;;;;;5056958;28;20221;-87
2022/11/27 04:17:36;;;;;;;11.20;6.17;;;;;;;;;;5056722;28;20237;-87
2022/11/27 04:20:07;;;;;;;9.03;5.83;;;;;;;;;;5056749;28;20218;-87
2022/11/27 04:22:36;;;;;;;10.27;5.97;;;;;;;;;;5049420;28;20213;-87
2022/11/27 04:25:04;;;;;;;11.73;8.07;;;;;;;;;;5056213;28;20216;-87
2022/11/27 04:27:33;;;;;;;10.83;6.70;;;;;;;;;;5057068;28;20212;-87
2022/11/27 04:30:01;;;;;;;6.83;5.17;;;;;;;;;;5060608;28;20255;-87
2022/11/27 04:32:29;;;;;;;9.73;6.30;;;;;;;;;;5056807;28;20216;-87
2022/11/27 04:34:58;;;;;;;10.17;5.30;;;;;;;;;;5056729;28;20218;-87
2022/11/27 04:37:28;;;;;;;12.33;6.27;;;;;;;;;;5056480;28;20209;-87
2022/11/27 04:39:56;;;;;;;6.43;4.60;;;;;;;;;;5056814;28;20213;-87
2022/11/27 04:42:24;;;;;;;8.50;5.00;;;;;;;;;;5056485;28;20204;-87
2022/11/27 04:44:53;;;;;;;8.47;5.97;;;;;;;;;;5056507;28;20208;-87
2022/11/27 04:47:22;;;;;;;15.27;7.57;;;;;;;;;;5056547;28;20189;-87
2022/11/27 04:49:50;;;;;;;9.53;4.63;;;;;;;;;;5056628;28;20205;-87
2022/11/27 04:52:18;;;;;;;12.47;5.07;;;;;;;;;;5060943;28;20186;-87
2022/11/27 04:54:48;;;;;;;5.20;2.73;;;;;;;;;;5044809;28;20284;-87
2022/11/27 04:57:17;;;;;;;9.27;5.90;;;;;;;;;;5055081;28;20205;-87
2022/11/27 04:59:45;;;;;;;5.87;4.00;;;;;;;;;;5073927;28;20262;-87
2022/11/27 05:02:14;;;;;;;3.97;2.57;;;;;;;;;;5055792;28;20270;-87
2022/11/27 05:04:42;;;;;;;8.93;5.83;;;;;;;;;;5056144;28;20222;-87
2022/11/27 05:07:10;;;;;;;11.47;5.93;;;;;;;;;;5049568;28;20205;-87
2022/11/27 05:09:39;;;;;;;9.63;5.00;;;;;;;;;;5056297;28;20207;-87
2022/11/27 05:12:09;;;;;;;14.10;6.10;;;;;;;;;;5055692;28;20205;-87
2022/11/27 05:14:37;;;;;;;6.33;4.13;;;;;;;;;;5056212;28;20221;-87
2022/11/27 05:17:06;;;;;;;9.57;5.53;;;;;;;;;;5055148;28;20361;-86
2022/11/27 05:19:34;;;;;;;11.27;6.93;;;;;;;;;;5055660;28;20262;-87
2022/11/27 05:22:03;;;;;;;9.10;4.80;;;;;;;;;;5055708;28;20201;-87
2022/11/27 05:24:31;;;;;;;5.30;3.50;;;;;;;;;;5055941;28;20201;-87
2022/11/27 05:27:00;;;;;;;12.10;6.00;;;;;;;;;;5055679;28;20201;-87
2022/11/27 05:29:29;;;;;;;7.93;4.63;;;;;;;;;;5055215;28;20193;-86
2022/11/27 05:31:58;;;;;;;8.00;4.87;;;;;;;;;;5056076;28;20201;-87
2022/11/27 05:34:26;;;;;;;10.40;5.63;;;;;;;;;;5052009;28;20300;-86
2022/11/27 05:36:55;;;;;;;11.30;6.50;;;;;;;;;;5045965;28;20288;-86
2022/11/27 05:39:23;;;;;;;9.23;5.90;;;;;;;;;;5055446;28;20231;-87
2022/11/27 05:41:51;;;;;;;12.67;6.67;;;;;;;;;;5062188;28;20202;-87
2022/11/27 05:44:20;;;;;;;11.60;5.83;;;;;;;;;;5053921;28;20252;-86
2022/11/27 05:46:49;;;;;;;8.23;5.77;;;;;;;;;;5055852;28;20205;-87
2022/11/27 05:49:18;;;;;;;9.27;4.80;;;;;;;;;;5072947;28;20232;-87
2022/11/27 05:51:46;;;;;;;6.57;5.57;;;;;;;;;;5073062;28;20197;-87
2022/11/27 05:54:19;;;;;;;10.03;5.57;;;;;;;;;;5043522;28;20208;-87
2022/11/27 05:56:48;;;;;;;10.47;6.40;;;;;;;;;;5072271;28;20217;-87
2022/11/27 05:59:16;;;;;;;7.83;5.03;;;;;;;;;;5055298;28;20190;-87
2022/11/27 06:01:45;;;;;;;7.10;5.40;;;;;;;;;;5054938;28;20205;-87
2022/11/27 06:04:14;;;;;;;9.47;5.00;;;;;;;;;;5054905;28;20264;-86
2022/11/27 06:06:43;;;;;;;9.90;5.17;;;;;;;;;;5054544;28;20199;-87
2022/11/27 06:09:12;;;;;;;9.03;4.70;;;;;;;;;;5068928;28;20198;-86
2022/11/27 06:11:41;;;;;;;8.43;4.90;;;;;;;;;;5045718;28;20197;-86
2022/11/27 06:14:10;;;;;;;8.60;5.87;;;;;;;;;;5054373;28;20197;-87
2022/11/27 06:16:39;;;;;;;8.80;6.03;;;;;;;;;;5054537;28;20241;-87
2022/11/27 06:19:07;;;;;;;10.53;5.90;;;;;;;;;;5054380;28;20323;-86
2022/11/27 06:21:37;;;;;;;9.03;6.43;;;;;;;;;;5042721;28;20218;-86
2022/11/27 06:24:06;;;;;;;9.63;5.53;;;;;;;;;;5042921;28;20221;-86
2022/11/27 06:26:34;;;;;;;11.23;6.73;;;;;;;;;;5039490;28;20202;-86
2022/11/27 06:29:03;;;;;;;12.23;5.60;;;;;;;;;;5053918;28;20240;-86
2022/11/27 06:31:32;;;;;;;5.30;4.57;;;;;;;;;;5054575;28;20202;-87
2022/11/27 06:34:01;;;;;;;9.73;6.47;;;;;;;;;;5054955;28;20251;-87
2022/11/27 06:36:30;;;;;;;9.47;6.67;;;;;;;;;;5075383;28;20241;-86
2022/11/27 06:39:00;;;;;;;9.03;6.73;;;;;;;;;;5072189;28;20209;-87
2022/11/27 06:41:29;;;;;;;8.70;5.27;;;;;;;;;;5054299;28;20292;-87
2022/11/27 06:43:59;;;;;;;7.47;6.10;;;;;;;;;;5054404;28;20193;-87
2022/11/27 06:46:27;;;;;;;8.43;6.27;;;;;;;;;;5054487;28;20205;-87
2022/11/27 06:48:56;;;;;;;6.63;4.30;;;;;;;;;;5053781;28;20197;-87
2022/11/27 06:51:25;;;;;;;10.63;5.23;;;;;;;;;;5054270;28;20194;-86
2022/11/27 06:53:54;;;;;;;7.77;5.00;;;;;;;;;;5071982;28;20197;-86
2022/11/27 06:56:26;;;;;;;7.27;5.10;;;;;;;;;;5054532;28;20294;-87
2022/11/27 06:58:55;;;;;;;7.47;4.10;;;;;;;;;;5053576;28;20255;-86
2022/11/27 07:01:24;;;;;;;10.77;6.47;;;;;;;;;;5054041;28;20202;-87
2022/11/27 07:03:52;;;;;;;8.23;5.40;;;;;;;;;;5054210;28;20221;-86
2022/11/27 07:06:22;;;;;;;8.77;5.93;;;;;;;;;;5054236;28;20303;-86
2022/11/27 07:08:51;;;;;;;7.13;5.40;;;;;;;;;;5053953;28;20206;-87
2022/11/27 07:11:20;;;;;;;9.60;5.63;;;;;;;;;;5054605;28;20206;-87
2022/11/27 07:13:51;;;;;;;10.00;6.03;;;;;;;;;;5053804;28;20209;-86
2022/11/27 07:16:19;;;;;;;5.93;4.23;;;;;;;;;;5054225;28;20235;-87
2022/11/27 07:18:49;;;;;;;14.73;5.83;;;;;;;;;;5053983;28;20204;-87
2022/11/27 07:21:17;;;;;;;11.80;6.80;;;;;;;;;;5053717;28;20193;-86
2022/11/27 07:23:46;;;;;;;9.93;5.23;;;;;;;;;;5062782;28;20203;-86
2022/11/27 07:26:15;;;;;;;8.67;5.80;;;;;;;;;;5049580;28;20194;-87
2022/11/27 07:28:44;;;;;;;8.53;5.73;;;;;;;;;;5053705;28;20251;-87
2022/11/27 07:31:16;;;;;;;6.63;4.90;;;;;;;;;;5053614;28;20194;-86
2022/11/27 07:33:44;;;;;;;9.13;5.47;;;;;;;;;;5071548;28;20205;-86
2022/11/27 07:36:14;;;;;;;8.00;5.30;;;;;;;;;;5054093;28;20225;-87
2022/11/27 07:38:43;;;;;;;10.17;5.47;;;;;;;;;;5054994;28;20212;-87
2022/11/27 07:41:11;;;;;;;7.90;4.57;;;;;;;;;;5057680;28;20197;-87
2022/11/27 07:43:41;;;;;;;7.53;4.90;;;;;;;;;;5057720;28;20231;-87
2022/11/27 07:46:11;;;;;;;11.17;5.47;;;;;;;;;;5057657;28;20198;-87
2022/11/27 07:48:41;;;;;;;5.70;3.80;;;;;;;;;;5057330;28;20198;-87
2022/11/27 07:51:10;;;;;;;6.33;4.80;;;;;;;;;;5058086;28;20197;-87
2022/11/27 07:53:39;;;;;;;8.73;5.67;;;;;;;;;;5057056;28;20201;-87
2022/11/27 07:56:09;;;;;;;6.60;4.80;;;;;;;;;;5057810;28;20267;-87
2022/11/27 07:58:37;;;;;;;7.30;5.10;;;;;;;;;;5057330;28;20442;-87
2022/11/27 08:01:06;;;;;;;8.43;4.67;;;;;;;;;;5057143;28;20198;-87
2022/11/27 08:03:35;;;;;;;8.30;5.20;;;;;;;;;;5057020;28;20221;-87
2022/11/27 08:06:05;;;;;;;8.27;4.90;;;;;;;;;;5056801;28;20204;-87
2022/11/27 08:08:33;;;;;;;5.47;4.13;;;;;;;;;;5051365;28;20205;-87
2022/11/27 08:11:02;;;;;;;9.27;5.47;;;;;;;;;;5057381;28;20201;-87
2022/11/27 08:13:30;;;;;;;7.03;5.23;;;;;;;;;;5052278;28;20194;-87
2022/11/27 08:15:59;;;;;;;9.37;5.33;;;;;;;;;;5056898;28;20215;-87
2022/11/27 08:18:28;;;;;;;8.73;5.80;;;;;;;;;;5056679;28;20280;-87
2022/11/27 08:20:56;;;;;;;9.47;5.97;;;;;;;;;;5057112;28;20250;-87
2022/11/27 08:23:26;;;;;;;5.80;4.03;;;;;;;;;;5069207;28;20210;-86
2022/11/27 08:25:54;;;;;;;7.83;5.57;;;;;;;;;;5057094;28;20216;-86
2022/11/27 08:28:23;;;;;;;7.27;4.23;;;;;;;;;;5056746;28;20630;-87
2022/11/27 08:30:56;;;;;;;6.57;5.20;;;;;;;;;;5056516;28;20202;-87
2022/11/27 08:33:25;;;;;;;7.70;4.77;;;;;;;;;;5057098;28;20202;-87
2022/11/27 08:35:53;;;;;;;9.77;6.03;;;;;;;;;;5056106;28;20209;-87
2022/11/27 08:38:22;;;;;;;9.83;5.73;;;;;;;;;;5056426;28;20223;-86
2022/11/27 08:40:59;;;;;;;11.60;6.27;;;;;;;;;;5056652;28;20247;-86
2022/11/27 08:43:27;;;;;;;7.57;5.80;;;;;;;;;;5056643;28;20228;-86
2022/11/27 08:45:56;;;;;;;9.87;6.33;;;;;;;;;;5055970;28;20194;-85
2022/11/27 08:48:25;;;;;;;10.97;6.80;;;;;;;;;;5057050;28;20225;-87
2022/11/27 08:50:54;;;;;;;3.70;3.10;;;;;;;;;;5055375;28;20275;-87
2022/11/27 08:53:22;;;;;;;6.47;5.40;;;;;;;;;;5056597;28;20197;-87
2022/11/27 08:55:51;;;;;;;18.17;7.07;;;;;;;;;;5056477;28;20216;-87
2022/11/27 08:58:21;;;;;;;8.37;4.67;;;;;;;;;;5055969;28;20223;-87
2022/11/27 09:00:49;;;;;;;10.57;5.10;;;;;;;;;;5043937;28;20209;-87
2022/11/27 09:03:17;;;;;;;5.53;4.17;;;;;;;;;;5073567;28;20197;-87
2022/11/27 09:05:46;;;;;;;10.17;5.50;;;;;;;;;;5055985;28;20209;-87
2022/11/27 09:08:19;;;;;;;10.80;5.73;;;;;;;;;;5055728;28;20194;-87
2022/11/27 09:10:47;;;;;;;7.87;6.00;;;;;;;;;;5055852;28;20202;-87
2022/11/27 09:13:15;;;;;;;10.17;5.10;;;;;;;;;;5056098;28;20225;-87
2022/11/27 09:15:45;;;;;;;10.53;6.10;;;;;;;;;;5055744;28;20209;-87
2022/11/27 09:18:13;;;;;;;7.47;4.40;;;;;;;;;;5056012;28;20229;-87
2022/11/27 09:20:42;;;;;;;7.33;4.67;;;;;;;;;;5055811;28;20254;-87
2022/11/27 09:23:10;;;;;;;15.53;6.27;;;;;;;;;;5055841;28;20197;-87
2022/11/27 09:25:41;;;;;;;9.40;5.90;;;;;;;;;;5055319;28;20292;-87
2022/11/27 09:28:10;;;;;;;8.07;5.43;;;;;;;;;;5073180;28;20216;-87
2022/11/27 09:30:38;;;;;;;11.40;6.07;;;;;;;;;;5056016;28;20198;-89
2022/11/27 09:33:08;;;;;;;8.93;6.53;;;;;;;;;;5056030;28;20229;-89
2022/11/27 09:35:37;;;;;;;10.20;5.97;;;;;;;;;;5073646;28;20209;-90
2022/11/27 09:38:06;;;;;;;10.57;6.77;;;;;;;;;;5052487;28;20218;-90
2022/11/27 09:40:35;;;;;;;9.63;5.80;;;;;;;;;;5050133;28;20193;-90
2022/11/27 09:43:09;;;;;;;8.70;6.37;;;;;;;;;;5055778;28;20209;-89
2022/11/27 09:45:44;;;;;;;12.83;7.57;;;;;;;;;;5055310;28;20200;-89
2022/11/27 09:48:16;;;;;;;10.77;8.50;;;;;;;;;;5055532;28;20189;-89
2022/11/27 09:50:49;;;;;;;12.43;7.03;;;;;;;;;;5055036;28;20233;-89
2022/11/27 09:53:23;;;;;;;13.53;7.30;;;;;;;;;;5055330;28;20201;-89
2022/11/27 09:55:54;;;;;;;10.93;6.10;;;;;;;;;;5054794;28;20201;-89
2022/11/27 09:58:26;;;;;;;10.10;7.30;;;;;;;;;;5055019;28;20286;-89
2022/11/27 10:00:54;;;;;;;9.77;6.30;;;;;;;;;;5055103;28;20213;-89
2022/11/27 10:03:26;;;;;;;9.67;7.43;;;;;;;;;;5072647;28;20279;-89
2022/11/27 10:06:01;;;;;;;12.27;7.60;;;;;;;;;;5054579;28;20205;-89
2022/11/27 10:08:34;;;;;;;13.60;6.60;;;;;;;;;;5072861;28;20224;-89
2022/11/27 10:11:06;;;;;;;14.33;8.23;;;;;;;;;;5055083;28;20201;-87
2022/11/27 10:13:38;;;;;;;11.33;7.37;;;;;;;;;;5054649;28;20261;-89
2022/11/27 10:16:10;;;;;;;9.47;7.30;;;;;;;;;;5054885;28;20209;-89
2022/11/27 10:18:45;;;;;;;9.83;7.93;;;;;;;;;;5054486;28;20238;-89
2022/11/27 10:21:15;;;;;;;14.57;6.53;;;;;;;;;;5055086;28;20228;-89
2022/11/27 10:23:47;;;;;;;10.63;7.77;;;;;;;;;;5055232;28;20207;-89
2022/11/27 10:26:18;;;;;;;9.63;5.80;;;;;;;;;;5054530;28;20194;-89
2022/11/27 10:28:51;;;;;;;12.03;7.07;;;;;;;;;;5072550;28;20193;-89
2022/11/27 10:31:24;;;;;;;12.23;8.33;;;;;;;;;;5072618;28;20228;-89
2022/11/27 10:33:56;;;;;;;11.10;6.37;;;;;;;;;;5054730;28;20255;-88
2022/11/27 10:36:28;;;;;;;14.83;8.40;;;;;;;;;;5054169;28;20201;-89
2022/11/27 10:38:57;;;;;;;13.43;8.53;;;;;;;;;;5054633;28;20217;-89
2022/11/27 10:41:29;;;;;;;10.00;5.10;;;;;;;;;;5054993;28;20193;-89
2022/11/27 10:44:29;;;;;;;14.50;8.67;;;;;;;;;;5054537;28;20201;-89
2022/11/27 10:46:59;;;;;;;14.47;7.63;;;;;;;;;;5054465;28;20228;-89
2022/11/27 10:49:29;;;;;;;16.33;9.00;;;;;;;;;;5060162;28;20255;-90
2022/11/27 10:51:57;;;;;;;18.70;10.53;;;;;;;;;;5053544;28;20210;-89
2022/11/27 10:54:28;;;;;;;15.07;10.13;;;;;;;;;;5054695;28;20205;-89
2022/11/27 10:57:03;;;;;;;11.17;8.20;;;;;;;;;;5054476;28;20213;-89
2022/11/27 10:59:34;;;;;;;12.83;9.67;;;;;;;;;;5072685;28;20236;-89
2022/11/27 11:02:04;;;;;;;13.13;7.37;;;;;;;;;;5054806;28;20198;-89
2022/11/27 11:04:34;;;;;;;11.83;8.87;;;;;;;;;;5054662;28;20223;-89
2022/11/27 11:07:21;;;;;;;15.73;11.00;;;;;;;;;;5053539;28;20205;-89
2022/11/27 11:09:50;;;;;;;7.80;6.50;;;;;;;;;;5043497;28;20296;-89
2022/11/27 11:12:20;;;;;;;17.90;10.20;;;;;;;;;;5054847;28;20201;-89
2022/11/27 11:14:52;;;;;;;12.47;9.53;;;;;;;;;;5075167;28;20201;-89
2022/11/27 11:17:24;;;;;;;12.60;9.00;;;;;;;;;;5058333;28;20265;-89
2022/11/27 11:19:55;;;;;;;13.03;10.10;;;;;;;;;;5076053;28;20225;-89
2022/11/27 11:22:23;;;;;;;13.17;8.63;;;;;;;;;;5058713;28;20287;-89
2022/11/27 11:24:52;;;;;;;11.87;8.40;;;;;;;;;;5058511;28;20199;-89
2022/11/27 11:27:23;;;;;;;13.50;7.60;;;;;;;;;;5058520;28;20221;-89
2022/11/27 11:29:53;;;;;;;16.67;12.07;;;;;;;;;;5058679;28;20259;-89
2022/11/27 11:32:23;;;;;;;13.73;8.50;;;;;;;;;;5058673;28;20259;-89
2022/11/27 11:34:54;;;;;;;17.10;11.93;;;;;;;;;;5058485;28;20220;-89
2022/11/27 11:37:31;;;;;;;14.70;11.13;;;;;;;;;;5057955;28;20261;-89
2022/11/27 11:40:00;;;;;;;18.70;11.23;;;;;;;;;;5058154;28;20213;-89
2022/11/27 11:42:30;;;;;;;12.90;10.67;;;;;;;;;;5045024;28;20197;-89
2022/11/27 11:45:02;;;;;;;12.40;9.83;;;;;;;;;;5058048;28;20204;-89
2022/11/27 11:47:31;;;;;;;15.70;9.33;;;;;;;;;;5057829;28;20202;-89
2022/11/27 11:50:00;;;;;;;15.93;11.47;;;;;;;;;;5058080;28;20201;-89
2022/11/27 11:52:43;;;;;;;14.80;7.03;;;;;;;;;;5057609;28;20258;-88
2022/11/27 11:55:18;;;;;;;15.57;10.20;;;;;;;;;;5055826;28;20257;-89
2022/11/27 11:58:09;;;;;;;14.53;10.10;;;;;;;;;;5064751;28;20209;-89
2022/11/27 12:00:43;;;;;;;14.13;8.40;;;;;;;;;;5056131;28;20209;-89
2022/11/27 12:03:38;;;;;;;15.00;10.33;;;;;;;;;;5072868;28;20280;-88
2022/11/27 12:06:28;;;;;;;20.20;14.13;;;;;;;;;;5066245;28;20253;-88
2022/11/27 12:09:14;;;;;;;18.20;13.70;;;;;;;;;;5075074;28;20221;-89
2022/11/27 12:11:47;;;;;;;16.90;12.97;;;;;;;;;;5057238;28;20279;-89
2022/11/27 12:14:19;;;;;;;12.57;7.30;;;;;;;;;;5074927;28;20209;-89
2022/11/27 12:16:57;;;;;;;18.10;12.20;;;;;;;;;;5074762;28;20233;-87
2022/11/27 12:19:37;;;;;;;20.17;14.70;;;;;;;;;;5063349;28;20228;-87
2022/11/27 12:22:11;;;;;;;14.80;9.93;;;;;;;;;;5056820;28;20223;-87
2022/11/27 12:24:44;;;;;;;21.70;14.97;;;;;;;;;;5056745;28;20205;-88
2022/11/27 12:27:18;;;;;;;19.73;13.90;;;;;;;;;;5056790;28;20205;-88
2022/11/27 12:29:55;;;;;;;22.10;14.60;;;;;;;;;;5043712;28;20200;-88
2022/11/27 12:32:41;;;;;;;14.47;10.23;;;;;;;;;;5043862;28;20206;-88
2022/11/27 12:35:24;;;;;;;18.20;12.77;;;;;;;;;;5063095;28;20205;-88
2022/11/27 12:37:56;;;;;;;17.73;11.13;;;;;;;;;;5073795;28;20212;-88
2022/11/27 12:40:33;;;;;;;12.07;8.03;;;;;;;;;;5056722;28;20232;-88
2022/11/27 12:43:08;;;;;;;21.30;13.33;;;;;;;;;;5061791;28;20205;-89
2022/11/27 12:45:39;;;;;;;15.40;11.70;;;;;;;;;;5056603;28;20209;-88
2022/11/27 12:48:13;;;;;;;20.77;14.13;;;;;;;;;;5057041;28;20204;-88
2022/11/27 12:50:43;;;;;;;14.83;9.37;;;;;;;;;;5056454;28;20201;-88
2022/11/27 12:53:15;;;;;;;16.73;12.20;;;;;;;;;;5056890;28;20201;-89
2022/11/27 12:55:59;;;;;;;14.80;12.63;;;;;;;;;;5056726;28;20201;-89
2022/11/27 12:58:32;;;;;;;14.63;9.37;;;;;;;;;;5056378;28;20213;-90
2022/11/27 13:01:02;;;;;;;17.50;12.67;;;;;;;;;;5056415;28;20236;-90
2022/11/27 13:03:34;;;;;;;18.17;11.70;;;;;;;;;;5073590;28;20230;-89
2022/11/27 13:06:06;;;;;;;16.30;12.30;;;;;;;;;;5056422;28;20233;-90
2022/11/27 13:08:38;;;;;;;12.37;10.70;;;;;;;;;;5056349;28;20200;-90
2022/11/27 13:11:09;;;;;;;14.93;11.67;;;;;;;;;;5056481;28;20219;-90
2022/11/27 13:13:42;;;;;;;7.13;6.43;;;;;;;;;;5056202;28;20233;-88
2022/11/27 13:16:14;;;;;;;12.67;9.27;;;;;;;;;;5056140;28;20229;-88
2022/11/27 13:18:45;;;;;;;5.63;3.90;;;;;;;;;;5055510;28;20248;-89
2022/11/27 13:21:15;;;;;;;13.67;12.17;;;;;;;;;;5073875;28;20198;-89
2022/11/27 13:23:44;;;;;;;11.07;9.97;;;;;;;;;;5065517;28;20206;-88
2022/11/27 13:26:14;;;;;;;11.53;10.43;;;;;;;;;;5051040;28;20205;-88
2022/11/27 13:28:45;;;;;;;12.90;11.00;;;;;;;;;;5056237;28;20193;-88
2022/11/27 13:31:17;;;;;;;13.77;9.30;;;;;;;;;;5055863;28;20259;-88
2022/11/27 13:33:47;;;;;;;11.67;9.87;;;;;;;;;;5055714;28;20261;-88
2022/11/27 13:36:20;;;;;;;12.83;10.07;;;;;;;;;;5042669;28;20212;-89
2022/11/27 13:38:53;;;;;;;13.03;11.50;;;;;;;;;;5073886;28;20214;-89
2022/11/27 13:41:22;;;;;;;13.63;9.00;;;;;;;;;;5055471;28;20213;-88
2022/11/27 13:43:52;;;;;;;13.73;9.87;;;;;;;;;;5055452;28;20259;-88
2022/11/27 13:46:23;;;;;;;13.93;10.80;;;;;;;;;;5048561;28;20206;-89
2022/11/27 13:48:53;;;;;;;14.03;11.77;;;;;;;;;;5038606;28;20206;-89
2022/11/27 13:51:26;;;;;;;14.10;11.57;;;;;;;;;;5055262;28;20220;-88
2022/11/27 13:54:06;;;;;;;13.07;10.13;;;;;;;;;;5060194;28;20190;-89
2022/11/27 13:56:35;;;;;;;13.20;10.07;;;;;;;;;;5055660;28;20224;-89
2022/11/27 13:59:15;;;;;;;13.23;11.93;;;;;;;;;;5072513;28;20235;-88
2022/11/27 14:01:53;;;;;;;12.23;8.40;;;;;;;;;;5055017;28;20218;-88
2022/11/27 14:04:22;;;;;;;15.57;8.10;;;;;;;;;;5072789;28;20221;-88
2022/11/27 14:06:56;;;;;;;15.03;9.93;;;;;;;;;;5055040;28;20197;-89
2022/11/27 14:09:33;;;;;;;13.93;9.23;;;;;;;;;;5054922;28;20277;-88
2022/11/27 14:12:01;;;;;;;15.70;10.20;;;;;;;;;;5055190;28;20201;-88
2022/11/27 14:14:32;;;;;;;11.93;9.90;;;;;;;;;;5055260;28;20205;-89
2022/11/27 14:17:03;;;;;;;10.53;9.00;;;;;;;;;;5054533;28;20244;-88
2022/11/27 14:19:33;;;;;;;12.40;10.97;;;;;;;;;;5054468;28;20270;-88
2022/11/27 14:22:02;;;;;;;10.80;7.40;;;;;;;;;;5055008;28;20193;-89
2022/11/27 14:24:39;;;;;;;15.20;11.40;;;;;;;;;;5059400;28;20270;-88
2022/11/27 14:27:15;;;;;;;10.67;6.77;;;;;;;;;;5072669;28;20235;-88
2022/11/27 14:29:46;;;;;;;16.27;11.70;;;;;;;;;;5054566;28;20197;-88
2022/11/27 14:32:15;;;;;;;13.57;12.13;;;;;;;;;;5054359;28;20205;-88
2022/11/27 14:34:44;;;;;;;15.13;11.80;;;;;;;;;;5054119;28;20201;-88
2022/11/27 14:37:23;;;;;;;15.17;13.60;;;;;;;;;;5054681;28;20193;-90
2022/11/27 14:39:51;;;;;;;15.63;13.63;;;;;;;;;;5042821;28;20221;-90
2022/11/27 14:42:21;;;;;;;9.20;7.23;;;;;;;;;;5052780;28;20201;-89
2022/11/27 14:45:04;;;;;;;14.83;11.90;;;;;;;;;;5035089;28;20194;-89
2022/11/27 14:47:33;;;;;;;16.00;14.10;;;;;;;;;;5052470;28;20331;-89
2022/11/27 14:50:02;;;;;;;14.00;12.60;;;;;;;;;;5054303;28;20190;-90
2022/11/27 14:52:31;;;;;;;21.10;19.13;;;;;;;;;;5054677;28;20209;-90